aviador You're here:

KDFW Decoded Metar

DALLAS-FORT WORTH in TX, USA
Report Time2017-05-23 14:08:00
UTC Time2017-05-23 14:49:16
Flight Rules mvfr MVFR
WindCalm
Visibility9999 m
Phenomena:N/A
Clouds:Broken 010 Hf
Overcast 029 Hf
Expected CloudBase > 800 ft AGL from Temp-Dew spread
Ceiling1,000 ft
Temp20°C (ISA +6)
Dew Point18°C (88% RH)
QNH1013 hPa
Density Alt1,565 ft
Elevation571 ft
Report Wrong Elevation
Raw Report
KDFW 231408Z 00000KT 10SM BKN010 OVC029 20/18 A2990 RMK AO2 LTG
DSNT S AND SW RAE1357 P0000 T02000178 $=

Extra information for KDFW:More info

Metar Taf Metar & Taf Last 4 Metars F.Rules Stats Wind Profile Meteogram Temp Stats Airport Information Weather charts Add Link Nearby VenuesMetar ALERT Operation Metar Decoded Social comments

AIRNAV info for KDFW